createdAt,value
2023-04-29T00:01:18.813Z,10.90
2023-04-29T00:03:45.880Z,10.90
2023-04-29T00:06:12.949Z,10.80
2023-04-29T00:08:40.216Z,10.90
2023-04-29T00:11:07.156Z,10.80
2023-04-29T00:13:34.088Z,10.80
2023-04-29T00:16:01.058Z,10.90
2023-04-29T00:18:28.023Z,10.90
2023-04-29T00:20:54.937Z,10.90
2023-04-29T00:23:21.876Z,10.90
2023-04-29T00:25:48.797Z,10.90
2023-04-29T00:28:15.710Z,10.90
2023-04-29T00:30:43.307Z,10.90
2023-04-29T00:33:10.317Z,10.80
2023-04-29T00:35:37.571Z,10.70
2023-04-29T00:38:04.572Z,10.70
2023-04-29T00:40:31.592Z,10.70
2023-04-29T00:42:58.509Z,10.70
2023-04-29T00:45:25.622Z,10.70
2023-04-29T00:47:52.579Z,10.70
2023-04-29T00:50:19.907Z,10.70
2023-04-29T00:52:48.328Z,10.70
2023-04-29T00:55:15.433Z,10.70
2023-04-29T00:57:42.691Z,10.70
2023-04-29T01:00:11.248Z,10.70
2023-04-29T01:02:38.760Z,10.60
2023-04-29T01:05:05.925Z,10.50
2023-04-29T01:07:55.114Z,10.50
2023-04-29T01:10:32.224Z,10.50
2023-04-29T01:13:11.231Z,10.40
2023-04-29T01:15:49.689Z,10.40
2023-04-29T01:18:30.255Z,10.40
2023-04-29T01:20:58.332Z,10.40
2023-04-29T01:23:29.978Z,10.50
2023-04-29T01:25:57.384Z,10.40
2023-04-29T01:29:09.114Z,10.40
2023-04-29T01:31:45.274Z,10.40
2023-04-29T01:34:22.208Z,10.40
2023-04-29T01:36:52.544Z,10.40
2023-04-29T01:39:38.312Z,10.40
2023-04-29T01:42:33.620Z,10.40
2023-04-29T01:45:06.995Z,10.40
2023-04-29T01:47:34.078Z,10.30
2023-04-29T01:50:02.568Z,10.30
2023-04-29T01:52:29.843Z,10.30
2023-04-29T01:54:57.569Z,10.30
2023-04-29T01:57:26.881Z,10.30
2023-04-29T01:59:59.309Z,10.30
2023-04-29T02:02:44.899Z,10.20
2023-04-29T02:05:22.347Z,10.20
2023-04-29T02:07:55.301Z,10.20
2023-04-29T02:10:22.623Z,10.20
2023-04-29T02:12:54.818Z,10.20
2023-04-29T02:15:21.912Z,10.20
2023-04-29T02:17:48.893Z,10.20
2023-04-29T02:20:16.121Z,10.20
2023-04-29T02:22:43.462Z,10.20
2023-04-29T02:25:11.297Z,10.20
2023-04-29T02:27:38.345Z,10.10
2023-04-29T02:30:06.998Z,10.10
2023-04-29T02:32:34.037Z,10.10
2023-04-29T02:35:00.993Z,10.00
2023-04-29T02:37:29.022Z,10.00
2023-04-29T02:39:56.003Z,9.90
2023-04-29T02:42:23.700Z,9.90
2023-04-29T02:44:50.597Z,9.90
2023-04-29T02:47:17.664Z,9.80
2023-04-29T02:49:45.190Z,9.70
2023-04-29T02:52:12.838Z,9.70
2023-04-29T02:54:40.081Z,9.70
2023-04-29T02:57:08.046Z,9.70
2023-04-29T02:59:35.009Z,9.60
2023-04-29T03:02:02.428Z,9.60
2023-04-29T03:04:29.777Z,9.60
2023-04-29T03:06:57.181Z,9.60
2023-04-29T03:09:26.740Z,9.60
2023-04-29T03:11:53.818Z,9.50
2023-04-29T03:14:20.693Z,9.40
2023-04-29T03:16:48.583Z,9.40
2023-04-29T03:19:16.828Z,9.40
2023-04-29T03:21:44.552Z,9.50
2023-04-29T03:24:11.516Z,9.40
2023-04-29T03:26:38.469Z,9.40
2023-04-29T03:29:05.443Z,9.30
2023-04-29T03:31:34.112Z,9.30
2023-04-29T03:34:01.247Z,9.40
2023-04-29T03:36:28.200Z,9.30
2023-04-29T03:39:01.777Z,9.40
2023-04-29T03:41:29.696Z,9.40
2023-04-29T03:44:00.717Z,9.40
2023-04-29T03:46:29.504Z,9.30
2023-04-29T03:48:56.743Z,9.30
2023-04-29T03:51:27.374Z,9.30
2023-04-29T03:54:03.270Z,9.30
2023-04-29T03:56:30.389Z,9.30
2023-04-29T03:58:57.304Z,9.30
2023-04-29T04:01:26.548Z,9.30
2023-04-29T04:03:53.649Z,9.30
2023-04-29T04:06:20.985Z,9.30
2023-04-29T04:08:48.504Z,9.30
2023-04-29T04:11:19.514Z,9.20
2023-04-29T04:13:52.113Z,9.20
2023-04-29T04:16:19.796Z,9.20
2023-04-29T04:18:46.744Z,9.10
2023-04-29T04:21:13.871Z,9.10
2023-04-29T04:23:45.001Z,9.10
2023-04-29T04:26:15.332Z,9.10
2023-04-29T04:29:01.653Z,9.20
2023-04-29T04:31:34.626Z,9.20
2023-04-29T04:34:02.113Z,9.20
2023-04-29T04:36:32.690Z,9.20
2023-04-29T04:38:59.759Z,9.30
2023-04-29T04:41:26.735Z,9.30
2023-04-29T04:43:54.015Z,9.30
2023-04-29T04:46:33.436Z,9.30
2023-04-29T04:49:09.325Z,9.40
2023-04-29T04:51:45.352Z,9.40
2023-04-29T04:54:12.442Z,9.40
2023-04-29T04:56:39.424Z,9.40
2023-04-29T04:59:08.096Z,9.50
2023-04-29T05:01:37.306Z,9.50
2023-04-29T05:04:04.577Z,9.50
2023-04-29T05:06:31.644Z,9.60
2023-04-29T05:08:58.686Z,9.60
2023-04-29T05:11:25.684Z,9.70
2023-04-29T05:14:27.997Z,9.80
2023-04-29T05:16:59.847Z,9.80
2023-04-29T05:19:27.665Z,9.90
2023-04-29T05:22:26.984Z,10.00
2023-04-29T05:24:55.359Z,10.00
2023-04-29T05:27:23.294Z,10.10
2023-04-29T05:29:50.761Z,10.10
2023-04-29T05:32:18.414Z,10.20
2023-04-29T05:34:46.046Z,10.20
2023-04-29T05:37:13.616Z,10.30
2023-04-29T05:39:58.502Z,10.40
2023-04-29T05:42:26.518Z,10.50
2023-04-29T05:44:54.002Z,10.50
2023-04-29T05:47:21.776Z,10.60
2023-04-29T05:49:50.107Z,10.70
2023-04-29T05:52:17.522Z,10.80
2023-04-29T05:54:47.495Z,10.90
2023-04-29T05:57:14.969Z,10.90
2023-04-29T05:59:42.193Z,11.00
2023-04-29T06:02:11.171Z,11.10
2023-04-29T06:04:41.805Z,11.10
2023-04-29T06:07:42.667Z,11.20
2023-04-29T06:10:33.783Z,11.20
2023-04-29T06:13:01.254Z,11.30
2023-04-29T06:15:28.568Z,11.40
2023-04-29T06:17:56.773Z,11.40
2023-04-29T06:20:24.258Z,11.50
2023-04-29T06:22:51.827Z,11.50
2023-04-29T06:25:19.025Z,11.60
2023-04-29T06:27:49.506Z,11.60
2023-04-29T06:30:19.424Z,11.70
2023-04-29T06:32:46.824Z,11.80
2023-04-29T06:35:14.085Z,11.90
2023-04-29T06:38:04.982Z,12.00
2023-04-29T06:40:51.153Z,12.10
2023-04-29T06:43:28.329Z,12.20
2023-04-29T06:46:16.560Z,12.20
2023-04-29T06:48:50.080Z,12.30
2023-04-29T06:51:17.546Z,12.50
2023-04-29T06:53:44.990Z,12.50
2023-04-29T06:56:12.876Z,12.60
2023-04-29T06:58:40.363Z,12.70
2023-04-29T07:01:09.468Z,12.80
2023-04-29T07:03:37.471Z,12.80
2023-04-29T07:06:05.324Z,12.90
2023-04-29T07:08:33.392Z,13.00
2023-04-29T07:11:00.946Z,13.10
2023-04-29T07:13:28.276Z,13.20
2023-04-29T07:15:55.707Z,13.30
2023-04-29T07:18:23.207Z,13.40
2023-04-29T07:20:52.940Z,13.50
2023-04-29T07:23:20.766Z,13.60
2023-04-29T07:25:47.998Z,13.70
2023-04-29T07:28:15.401Z,13.80
2023-04-29T07:30:42.652Z,13.90
2023-04-29T07:33:10.354Z,14.00
2023-04-29T07:35:38.078Z,14.10
2023-04-29T07:38:05.498Z,14.20
2023-04-29T07:40:32.783Z,14.20
2023-04-29T07:43:04.777Z,14.20
2023-04-29T07:45:32.224Z,14.30
2023-04-29T07:47:59.589Z,14.40
2023-04-29T07:50:26.892Z,14.70
2023-04-29T07:52:55.391Z,14.80
2023-04-29T07:55:22.771Z,14.90
2023-04-29T07:57:50.504Z,15.00
2023-04-29T08:00:18.253Z,15.10
2023-04-29T08:02:51.513Z,15.30
2023-04-29T08:05:21.399Z,15.40
2023-04-29T08:07:49.779Z,15.40
2023-04-29T08:10:19.659Z,15.50
2023-04-29T08:12:47.849Z,15.60
2023-04-29T08:15:15.070Z,15.80
2023-04-29T08:17:42.730Z,15.80
2023-04-29T08:20:10.741Z,15.80
2023-04-29T08:22:38.214Z,15.80
2023-04-29T08:25:05.856Z,15.80
2023-04-29T08:27:33.467Z,15.80
2023-04-29T08:30:00.757Z,15.80
2023-04-29T08:32:28.230Z,15.80
2023-04-29T08:34:55.969Z,15.90
2023-04-29T08:37:23.362Z,15.90
2023-04-29T08:39:50.635Z,16.00
2023-04-29T08:42:29.092Z,16.10
2023-04-29T08:44:57.700Z,16.10
2023-04-29T08:47:25.358Z,16.10
2023-04-29T08:49:53.932Z,16.10
2023-04-29T08:52:21.511Z,16.10
2023-04-29T08:54:48.978Z,16.20
2023-04-29T08:57:16.978Z,16.30
2023-04-29T09:00:03.519Z,16.40
2023-04-29T09:02:31.237Z,16.60
2023-04-29T09:05:09.238Z,16.80
2023-04-29T09:07:38.363Z,17.10
2023-04-29T09:10:06.354Z,17.30
2023-04-29T09:12:33.870Z,17.30
2023-04-29T09:15:01.207Z,17.30
2023-04-29T09:17:42.388Z,17.40
2023-04-29T09:20:22.203Z,17.50
2023-04-29T09:23:05.787Z,17.60
2023-04-29T09:25:33.181Z,17.70
2023-04-29T09:28:16.148Z,17.70
2023-04-29T09:30:47.602Z,17.70
2023-04-29T09:33:16.987Z,17.70
2023-04-29T09:35:44.213Z,17.70
2023-04-29T09:38:14.109Z,17.80
2023-04-29T09:40:54.479Z,17.90
2023-04-29T09:43:24.438Z,18.10
2023-04-29T09:45:51.896Z,18.10
2023-04-29T09:48:19.328Z,18.00
2023-04-29T09:51:01.859Z,18.10
2023-04-29T09:53:31.824Z,18.20
2023-04-29T09:56:02.246Z,18.30
2023-04-29T09:58:31.632Z,18.30
2023-04-29T10:01:03.525Z,18.30
2023-04-29T10:03:38.585Z,18.40
2023-04-29T10:06:07.721Z,18.60
2023-04-29T10:08:35.960Z,18.70
2023-04-29T10:11:04.688Z,18.80
2023-04-29T10:13:34.838Z,18.80
2023-04-29T10:16:17.448Z,18.90
2023-04-29T10:18:52.912Z,19.00
2023-04-29T10:21:27.798Z,19.10
2023-04-29T10:23:57.277Z,19.20
2023-04-29T10:26:30.505Z,19.30
2023-04-29T10:29:02.350Z,19.30
2023-04-29T10:31:33.877Z,19.30
2023-04-29T10:34:01.964Z,19.40
2023-04-29T10:36:33.851Z,19.40
2023-04-29T10:39:04.107Z,19.40
2023-04-29T10:41:38.022Z,19.40
2023-04-29T10:44:05.709Z,19.50
2023-04-29T10:46:32.957Z,19.60
2023-04-29T10:49:06.517Z,19.60
2023-04-29T10:51:35.558Z,19.60
2023-04-29T10:54:15.679Z,19.60
2023-04-29T10:56:50.606Z,19.60
2023-04-29T10:59:23.063Z,19.70
2023-04-29T11:01:54.103Z,19.70
2023-04-29T11:04:22.804Z,19.70
2023-04-29T11:07:02.588Z,19.60
2023-04-29T11:09:34.416Z,19.60
2023-04-29T11:12:08.853Z,19.60
2023-04-29T11:14:38.029Z,19.70
2023-04-29T11:17:13.427Z,19.70
2023-04-29T11:19:50.187Z,19.80
2023-04-29T11:22:23.189Z,20.00
2023-04-29T11:24:51.863Z,20.00
2023-04-29T11:27:23.003Z,20.00
2023-04-29T11:29:51.460Z,20.10
2023-04-29T11:32:23.361Z,20.20
2023-04-29T11:34:51.243Z,20.30
2023-04-29T11:37:26.427Z,20.20
2023-04-29T11:40:01.400Z,20.20
2023-04-29T11:42:28.870Z,20.10
2023-04-29T11:45:00.643Z,20.00
2023-04-29T11:47:29.723Z,20.00
2023-04-29T11:50:08.900Z,20.10
2023-04-29T11:52:38.053Z,20.20
2023-04-29T11:55:06.314Z,20.10
2023-04-29T11:57:33.581Z,19.90
2023-04-29T12:00:01.376Z,19.70
2023-04-29T12:02:36.023Z,19.60
2023-04-29T12:05:08.723Z,19.60
2023-04-29T12:07:37.628Z,19.80
2023-04-29T12:10:09.888Z,20.20
2023-04-29T12:12:40.924Z,20.20
2023-04-29T12:15:10.511Z,20.40
2023-04-29T12:17:39.000Z,20.40
2023-04-29T12:20:08.419Z,20.50
2023-04-29T12:22:36.272Z,20.60
2023-04-29T12:25:08.088Z,20.60
2023-04-29T12:27:37.218Z,20.60
2023-04-29T12:30:09.847Z,20.70
2023-04-29T12:32:38.609Z,20.70
2023-04-29T12:35:06.386Z,20.80
2023-04-29T12:37:35.340Z,20.80
2023-04-29T12:40:02.782Z,20.80
2023-04-29T12:42:34.442Z,20.70
2023-04-29T12:45:02.787Z,20.60
2023-04-29T12:47:37.623Z,20.40
2023-04-29T12:50:07.569Z,20.40
2023-04-29T12:52:36.731Z,20.50
2023-04-29T12:55:05.172Z,20.40
2023-04-29T12:57:32.588Z,20.40
2023-04-29T13:00:00.587Z,20.40
2023-04-29T13:02:28.661Z,20.40
2023-04-29T13:04:56.352Z,20.40
2023-04-29T13:07:24.129Z,20.50
2023-04-29T13:09:51.504Z,20.40
2023-04-29T13:12:18.853Z,20.40
2023-04-29T13:14:46.329Z,20.50
2023-04-29T13:17:14.281Z,20.50
2023-04-29T13:19:51.246Z,20.60
2023-04-29T13:22:20.009Z,20.60
2023-04-29T13:24:47.723Z,20.70
2023-04-29T13:27:15.097Z,20.70
2023-04-29T13:29:42.727Z,20.70
2023-04-29T13:32:09.983Z,20.70
2023-04-29T13:34:37.401Z,20.60
2023-04-29T13:37:04.650Z,20.60
2023-04-29T13:39:31.990Z,20.40
2023-04-29T13:41:59.681Z,20.20
2023-04-29T13:44:35.709Z,20.10
2023-04-29T13:47:13.737Z,20.00
2023-04-29T13:50:17.304Z,19.90
2023-04-29T13:55:49.375Z,19.80
2023-04-29T14:00:47.423Z,19.70
2023-04-29T14:03:07.910Z,19.60
2023-04-29T14:05:35.781Z,19.60
2023-04-29T14:08:03.269Z,19.60
2023-04-29T14:10:31.311Z,19.60
2023-04-29T14:12:58.676Z,19.60
2023-04-29T14:15:26.008Z,19.50
2023-04-29T14:17:54.751Z,19.40
2023-04-29T14:20:22.215Z,19.30
2023-04-29T14:22:49.789Z,19.20
2023-04-29T14:25:17.182Z,19.20
2023-04-29T14:27:44.585Z,19.20
2023-04-29T14:30:12.275Z,19.20
2023-04-29T14:32:39.525Z,19.10
2023-04-29T14:35:07.332Z,19.10
2023-04-29T14:37:34.532Z,19.10
2023-04-29T14:40:02.298Z,19.20
2023-04-29T14:42:29.747Z,19.20
2023-04-29T14:44:57.063Z,19.20
2023-04-29T14:47:24.689Z,19.10
2023-04-29T14:49:51.993Z,19.10
2023-04-29T14:52:19.382Z,19.20
2023-04-29T14:54:46.697Z,19.20
2023-04-29T14:57:14.130Z,19.20
2023-04-29T14:59:41.794Z,19.20
2023-04-29T15:02:09.183Z,19.30
2023-04-29T15:04:37.973Z,19.40
2023-04-29T15:07:06.181Z,19.40
2023-04-29T15:09:33.791Z,19.50
2023-04-29T15:12:02.245Z,19.50
2023-04-29T15:14:29.649Z,19.60
2023-04-29T15:16:57.003Z,19.60
2023-04-29T15:19:25.365Z,19.60
2023-04-29T15:21:53.195Z,19.70
2023-04-29T15:24:20.715Z,19.60
2023-04-29T15:26:48.433Z,19.50
2023-04-29T15:29:16.167Z,19.50
2023-04-29T15:31:44.047Z,19.50
2023-04-29T15:34:11.643Z,19.50
2023-04-29T15:36:38.784Z,19.50
2023-04-29T15:39:06.720Z,19.50
2023-04-29T15:41:34.035Z,19.50
2023-04-29T15:44:01.836Z,19.60
2023-04-29T15:46:31.201Z,19.60
2023-04-29T15:48:58.870Z,19.60
2023-04-29T15:51:26.246Z,19.60
2023-04-29T15:53:53.929Z,19.60
2023-04-29T15:56:21.744Z,19.60
2023-04-29T15:58:49.125Z,19.60
2023-04-29T16:01:16.452Z,19.50
2023-04-29T16:03:43.846Z,19.50
2023-04-29T16:06:11.270Z,19.50
2023-04-29T16:08:38.591Z,19.50
2023-04-29T16:11:06.068Z,19.50
2023-04-29T16:13:36.154Z,19.40
2023-04-29T16:16:03.760Z,19.40
2023-04-29T16:18:32.458Z,19.30
2023-04-29T16:20:59.719Z,19.20
2023-04-29T16:23:27.057Z,19.20
2023-04-29T16:25:54.647Z,19.20
2023-04-29T16:28:22.297Z,19.20
2023-04-29T16:30:49.514Z,19.20
2023-04-29T16:33:16.961Z,19.20
2023-04-29T16:35:44.146Z,19.10
2023-04-29T16:38:13.000Z,19.00
2023-04-29T16:40:40.313Z,19.00
2023-04-29T16:43:07.735Z,19.00
2023-04-29T16:45:35.062Z,19.00
2023-04-29T16:48:03.298Z,19.00
2023-04-29T16:50:30.910Z,19.00
2023-04-29T16:52:58.543Z,18.90
2023-04-29T16:55:25.809Z,18.90
2023-04-29T16:57:53.068Z,19.00
2023-04-29T17:00:20.449Z,18.90
2023-04-29T17:02:50.482Z,18.90
2023-04-29T17:05:21.894Z,18.90
2023-04-29T17:07:49.608Z,18.90
2023-04-29T17:10:17.028Z,18.90
2023-04-29T17:12:44.448Z,18.80
2023-04-29T17:15:12.246Z,18.80
2023-04-29T17:17:39.798Z,18.80
2023-04-29T17:20:07.648Z,18.70
2023-04-29T17:22:35.073Z,18.70
2023-04-29T17:25:02.707Z,18.70
2023-04-29T17:27:30.039Z,18.70
2023-04-29T17:29:57.584Z,18.60
2023-04-29T17:32:29.123Z,18.60
2023-04-29T17:34:57.917Z,18.60
2023-04-29T17:37:25.950Z,18.60
2023-04-29T17:39:53.936Z,18.60
2023-04-29T17:42:22.286Z,18.60
2023-04-29T17:44:50.480Z,18.60
2023-04-29T17:47:18.011Z,18.50
2023-04-29T17:49:45.827Z,18.40
2023-04-29T17:52:14.609Z,18.40
2023-04-29T17:54:42.758Z,18.40
2023-04-29T17:57:10.068Z,18.40
2023-04-29T17:59:37.383Z,18.40
2023-04-29T18:02:05.026Z,18.40
2023-04-29T18:04:32.417Z,18.30
2023-04-29T18:06:59.882Z,18.30
2023-04-29T18:09:27.724Z,18.30
2023-04-29T18:11:55.153Z,18.20
2023-04-29T18:14:23.635Z,18.10
2023-04-29T18:16:52.089Z,18.10
2023-04-29T18:19:19.480Z,18.20
2023-04-29T18:21:47.605Z,18.10
2023-04-29T18:24:16.217Z,18.10
2023-04-29T18:26:43.771Z,18.00
2023-04-29T18:29:11.834Z,17.90
2023-04-29T18:31:40.564Z,17.80
2023-04-29T18:34:08.184Z,17.80
2023-04-29T18:36:35.790Z,17.70
2023-04-29T18:39:03.304Z,17.70
2023-04-29T18:41:30.862Z,17.70
2023-04-29T18:43:58.150Z,17.50
2023-04-29T18:46:26.101Z,17.40
2023-04-29T18:48:54.284Z,17.30
2023-04-29T18:51:23.569Z,17.20
2023-04-29T18:53:51.790Z,17.20
2023-04-29T18:56:19.653Z,17.10
2023-04-29T18:58:47.687Z,17.00
2023-04-29T19:01:15.436Z,16.90
2023-04-29T19:03:43.306Z,16.90
2023-04-29T19:06:12.505Z,16.80
2023-04-29T19:08:41.247Z,16.80
2023-04-29T19:11:08.695Z,16.70
2023-04-29T19:13:36.166Z,16.60
2023-04-29T19:16:05.047Z,16.50
2023-04-29T19:18:32.547Z,16.40
2023-04-29T19:21:02.564Z,16.40
2023-04-29T19:23:31.799Z,16.30
2023-04-29T19:26:00.167Z,16.20
2023-04-29T19:28:29.674Z,16.10
2023-04-29T19:30:57.585Z,16.10
2023-04-29T19:33:25.619Z,16.00
2023-04-29T19:35:55.720Z,15.90
2023-04-29T19:38:24.228Z,15.80
2023-04-29T19:40:55.606Z,15.70
2023-04-29T19:43:23.991Z,15.50
2023-04-29T19:45:51.728Z,15.30
2023-04-29T19:48:19.380Z,15.20
2023-04-29T19:50:47.058Z,14.90
2023-04-29T19:53:15.053Z,14.90
2023-04-29T19:55:43.017Z,14.90
2023-04-29T19:58:11.076Z,15.00
2023-04-29T20:00:38.575Z,15.10
2023-04-29T20:03:06.120Z,15.10
2023-04-29T20:05:34.018Z,15.10
2023-04-29T20:08:01.775Z,15.20
2023-04-29T20:10:30.144Z,15.30
2023-04-29T20:12:57.792Z,15.40
2023-04-29T20:15:26.193Z,15.50
2023-04-29T20:17:53.820Z,15.50
2023-04-29T20:20:21.325Z,15.50
2023-04-29T20:22:49.120Z,15.50
2023-04-29T20:25:18.232Z,15.50
2023-04-29T20:27:46.082Z,15.50
2023-04-29T20:30:14.131Z,15.50
2023-04-29T20:32:41.812Z,15.40
2023-04-29T20:35:09.897Z,15.50
2023-04-29T20:37:38.356Z,15.40
2023-04-29T20:40:07.748Z,15.40
2023-04-29T20:42:35.304Z,15.40
2023-04-29T20:45:02.572Z,15.50
2023-04-29T20:47:30.320Z,15.40
2023-04-29T20:49:57.966Z,15.40
2023-04-29T20:52:27.721Z,15.40
2023-04-29T20:54:55.615Z,15.30
2023-04-29T20:57:23.398Z,15.20
2023-04-29T20:59:51.827Z,15.20
2023-04-29T21:02:19.270Z,15.20
2023-04-29T21:04:46.436Z,15.10
2023-04-29T21:07:13.948Z,15.00
2023-04-29T21:09:41.069Z,15.00
2023-04-29T21:12:08.608Z,15.00
2023-04-29T21:14:35.826Z,15.00
2023-04-29T21:17:03.293Z,14.90
2023-04-29T21:19:31.087Z,14.70
2023-04-29T21:21:58.080Z,14.60
2023-04-29T21:24:26.906Z,14.50
2023-04-29T21:26:54.005Z,14.50
2023-04-29T21:29:21.053Z,14.50
2023-04-29T21:31:48.120Z,14.50
2023-04-29T21:34:15.234Z,14.50
2023-04-29T21:36:42.300Z,14.40
2023-04-29T21:39:09.773Z,14.40
2023-04-29T21:41:39.216Z,14.10
2023-04-29T21:44:07.573Z,14.00
2023-04-29T21:46:35.802Z,13.90
2023-04-29T21:49:04.071Z,13.80
2023-04-29T21:51:31.987Z,13.80
2023-04-29T21:53:58.910Z,13.80
2023-04-29T21:56:25.931Z,13.70
2023-04-29T21:58:53.472Z,13.50
2023-04-29T22:01:27.450Z,13.50
2023-04-29T22:03:57.283Z,13.50
2023-04-29T22:06:24.700Z,13.50
2023-04-29T22:08:51.847Z,13.40
2023-04-29T22:11:21.786Z,13.40
2023-04-29T22:13:48.976Z,13.30
2023-04-29T22:16:16.420Z,13.20
2023-04-29T22:18:43.434Z,13.10
2023-04-29T22:21:10.704Z,13.20
2023-04-29T22:23:37.784Z,13.00
2023-04-29T22:26:05.205Z,13.00
2023-04-29T22:28:32.329Z,12.90
2023-04-29T22:30:59.339Z,12.90
2023-04-29T22:33:26.350Z,12.90
2023-04-29T22:35:53.405Z,12.80
2023-04-29T22:38:20.391Z,12.80
2023-04-29T22:40:51.823Z,12.80
2023-04-29T22:43:18.982Z,12.80
2023-04-29T22:45:56.188Z,12.70
2023-04-29T22:48:25.240Z,12.70
2023-04-29T22:50:55.140Z,12.60
2023-04-29T22:53:22.481Z,12.60
2023-04-29T22:55:54.566Z,12.50
2023-04-29T22:58:22.467Z,12.40
2023-04-29T23:00:57.865Z,12.20
2023-04-29T23:03:25.482Z,12.20
2023-04-29T23:05:57.204Z,12.10
2023-04-29T23:08:24.172Z,12.10
2023-04-29T23:10:51.236Z,11.90
2023-04-29T23:13:18.563Z,11.90
2023-04-29T23:15:46.034Z,11.90
2023-04-29T23:18:13.171Z,11.90
2023-04-29T23:20:40.348Z,11.90
2023-04-29T23:23:07.356Z,11.80
2023-04-29T23:25:34.873Z,11.60
2023-04-29T23:28:02.006Z,11.60
2023-04-29T23:30:29.026Z,11.60
2023-04-29T23:32:56.052Z,11.50
2023-04-29T23:35:23.135Z,11.50
2023-04-29T23:37:50.125Z,11.50
2023-04-29T23:40:17.184Z,11.50
2023-04-29T23:42:44.171Z,11.50
2023-04-29T23:45:11.218Z,11.50
2023-04-29T23:47:38.268Z,11.40
2023-04-29T23:50:05.798Z,11.50
2023-04-29T23:52:32.898Z,11.50
2023-04-29T23:54:59.991Z,11.50
2023-04-29T23:57:27.002Z,11.40
2023-04-29T23:59:54.223Z,11.50
